sensor_id;sensor_type;location;lat;lon;timestamp;temperature;humidity
31263;DHT22;17892;52.080;9.006;2023-03-16T00:00:11;2.30;99.90
31263;DHT22;17892;52.080;9.006;2023-03-16T00:02:39;2.20;99.90
31263;DHT22;17892;52.080;9.006;2023-03-16T00:05:06;2.20;99.90
31263;DHT22;17892;52.080;9.006;2023-03-16T00:07:33;2.20;99.90
31263;DHT22;17892;52.080;9.006;2023-03-16T00:09:59;2.20;99.90
31263;DHT22;17892;52.080;9.006;2023-03-16T00:12:26;2.20;99.90
31263;DHT22;17892;52.080;9.006;2023-03-16T00:14:51;2.20;99.90
31263;DHT22;17892;52.080;9.006;2023-03-16T00:17:19;2.10;99.90
31263;DHT22;17892;52.080;9.006;2023-03-16T00:19:52;2.10;99.90
31263;DHT22;17892;52.080;9.006;2023-03-16T00:22:24;2.10;99.90
31263;DHT22;17892;52.080;9.006;2023-03-16T00:24:52;2.10;99.90
31263;DHT22;17892;52.080;9.006;2023-03-16T00:27:18;2.10;99.90
31263;DHT22;17892;52.080;9.006;2023-03-16T00:29:47;2.10;99.90
31263;DHT22;17892;52.080;9.006;2023-03-16T00:32:21;2.00;99.90
31263;DHT22;17892;52.080;9.006;2023-03-16T00:34:51;2.10;99.90
31263;DHT22;17892;52.080;9.006;2023-03-16T00:37:18;2.00;99.90
31263;DHT22;17892;52.080;9.006;2023-03-16T00:39:46;2.00;99.90
31263;DHT22;17892;52.080;9.006;2023-03-16T00:42:13;2.10;99.90
31263;DHT22;17892;52.080;9.006;2023-03-16T00:44:40;2.00;99.90
31263;DHT22;17892;52.080;9.006;2023-03-16T00:47:07;2.00;99.90
31263;DHT22;17892;52.080;9.006;2023-03-16T00:49:34;2.00;99.90
31263;DHT22;17892;52.080;9.006;2023-03-16T00:52:05;2.00;99.90
31263;DHT22;17892;52.080;9.006;2023-03-16T00:54:32;1.90;99.90
31263;DHT22;17892;52.080;9.006;2023-03-16T00:56:59;2.00;99.90
31263;DHT22;17892;52.080;9.006;2023-03-16T00:59:25;1.90;99.90
31263;DHT22;17892;52.080;9.006;2023-03-16T01:01:52;1.90;99.90
31263;DHT22;17892;52.080;9.006;2023-03-16T01:04:19;1.90;99.90
31263;DHT22;17892;52.080;9.006;2023-03-16T01:06:45;1.90;99.90
31263;DHT22;17892;52.080;9.006;2023-03-16T01:09:11;1.90;99.90
31263;DHT22;17892;52.080;9.006;2023-03-16T01:11:39;1.90;99.90
31263;DHT22;17892;52.080;9.006;2023-03-16T01:14:08;1.90;99.90
31263;DHT22;17892;52.080;9.006;2023-03-16T01:16:34;1.90;99.90
31263;DHT22;17892;52.080;9.006;2023-03-16T01:19:00;1.90;99.90
31263;DHT22;17892;52.080;9.006;2023-03-16T01:21:26;1.90;99.90
31263;DHT22;17892;52.080;9.006;2023-03-16T01:23:53;1.90;99.90
31263;DHT22;17892;52.080;9.006;2023-03-16T01:26:19;1.90;99.90
31263;DHT22;17892;52.080;9.006;2023-03-16T01:28:47;1.90;99.90
31263;DHT22;17892;52.080;9.006;2023-03-16T01:31:14;1.90;99.90
31263;DHT22;17892;52.080;9.006;2023-03-16T01:33:41;1.90;99.90
31263;DHT22;17892;52.080;9.006;2023-03-16T01:36:15;1.90;99.90
31263;DHT22;17892;52.080;9.006;2023-03-16T01:38:42;1.90;99.90
31263;DHT22;17892;52.080;9.006;2023-03-16T01:41:09;1.90;99.90
31263;DHT22;17892;52.080;9.006;2023-03-16T01:43:37;1.90;99.90
31263;DHT22;17892;52.080;9.006;2023-03-16T01:48:34;1.90;99.90
31263;DHT22;17892;52.080;9.006;2023-03-16T01:51:10;1.90;99.90
31263;DHT22;17892;52.080;9.006;2023-03-16T01:53:46;1.90;99.90
31263;DHT22;17892;52.080;9.006;2023-03-16T01:56:18;1.90;99.90
31263;DHT22;17892;52.080;9.006;2023-03-16T01:58:56;1.80;99.90
31263;DHT22;17892;52.080;9.006;2023-03-16T02:01:25;1.80;99.90
31263;DHT22;17892;52.080;9.006;2023-03-16T02:03:56;1.80;99.90
31263;DHT22;17892;52.080;9.006;2023-03-16T02:06:28;1.70;99.90
31263;DHT22;17892;52.080;9.006;2023-03-16T02:08:54;1.70;99.90
31263;DHT22;17892;52.080;9.006;2023-03-16T02:11:21;1.70;99.90
31263;DHT22;17892;52.080;9.006;2023-03-16T02:13:48;1.70;99.90
31263;DHT22;17892;52.080;9.006;2023-03-16T02:16:16;1.70;99.90
31263;DHT22;17892;52.080;9.006;2023-03-16T02:18:45;1.70;99.90
31263;DHT22;17892;52.080;9.006;2023-03-16T02:24:10;1.70;99.90
31263;DHT22;17892;52.080;9.006;2023-03-16T02:26:40;1.70;99.90
31263;DHT22;17892;52.080;9.006;2023-03-16T02:29:26;1.60;99.90
31263;DHT22;17892;52.080;9.006;2023-03-16T02:32:12;1.60;99.90
31263;DHT22;17892;52.080;9.006;2023-03-16T02:34:40;1.60;99.90
31263;DHT22;17892;52.080;9.006;2023-03-16T02:37:06;1.60;99.90
31263;DHT22;17892;52.080;9.006;2023-03-16T02:39:32;1.60;99.90
31263;DHT22;17892;52.080;9.006;2023-03-16T02:41:59;1.60;99.90
31263;DHT22;17892;52.080;9.006;2023-03-16T02:44:33;1.60;99.90
31263;DHT22;17892;52.080;9.006;2023-03-16T02:47:15;1.50;99.90
31263;DHT22;17892;52.080;9.006;2023-03-16T02:50:02;1.60;99.90
31263;DHT22;17892;52.080;9.006;2023-03-16T02:52:35;1.50;99.90
31263;DHT22;17892;52.080;9.006;2023-03-16T02:55:05;1.50;99.90
31263;DHT22;17892;52.080;9.006;2023-03-16T02:57:31;1.50;99.90
31263;DHT22;17892;52.080;9.006;2023-03-16T02:59:57;1.50;99.90
31263;DHT22;17892;52.080;9.006;2023-03-16T03:02:23;1.50;99.90
31263;DHT22;17892;52.080;9.006;2023-03-16T03:04:49;1.50;99.90
31263;DHT22;17892;52.080;9.006;2023-03-16T03:07:19;1.50;99.90
31263;DHT22;17892;52.080;9.006;2023-03-16T03:09:45;1.50;99.90
31263;DHT22;17892;52.080;9.006;2023-03-16T03:12:11;1.60;99.90
31263;DHT22;17892;52.080;9.006;2023-03-16T03:14:37;1.60;99.90
31263;DHT22;17892;52.080;9.006;2023-03-16T03:17:08;1.60;99.90
31263;DHT22;17892;52.080;9.006;2023-03-16T03:19:35;1.70;99.90
31263;DHT22;17892;52.080;9.006;2023-03-16T03:22:02;1.70;99.90
31263;DHT22;17892;52.080;9.006;2023-03-16T03:24:31;1.60;99.90
31263;DHT22;17892;52.080;9.006;2023-03-16T03:26:58;1.70;99.90
31263;DHT22;17892;52.080;9.006;2023-03-16T03:29:33;1.70;99.90
31263;DHT22;17892;52.080;9.006;2023-03-16T03:32:03;1.70;99.90
31263;DHT22;17892;52.080;9.006;2023-03-16T03:34:30;1.70;99.90
31263;DHT22;17892;52.080;9.006;2023-03-16T03:36:56;1.70;99.90
31263;DHT22;17892;52.080;9.006;2023-03-16T03:39:23;1.70;99.90
31263;DHT22;17892;52.080;9.006;2023-03-16T03:41:49;1.70;99.90
31263;DHT22;17892;52.080;9.006;2023-03-16T03:44:19;1.70;99.90
31263;DHT22;17892;52.080;9.006;2023-03-16T03:46:46;1.70;99.90
31263;DHT22;17892;52.080;9.006;2023-03-16T03:49:12;1.70;99.90
31263;DHT22;17892;52.080;9.006;2023-03-16T03:51:38;1.70;99.90
31263;DHT22;17892;52.080;9.006;2023-03-16T03:54:05;1.70;99.90
31263;DHT22;17892;52.080;9.006;2023-03-16T03:56:32;1.70;99.90
31263;DHT22;17892;52.080;9.006;2023-03-16T03:58:57;1.70;99.90
31263;DHT22;17892;52.080;9.006;2023-03-16T04:01:23;1.70;99.90
31263;DHT22;17892;52.080;9.006;2023-03-16T04:03:49;1.70;99.90
31263;DHT22;17892;52.080;9.006;2023-03-16T04:06:15;1.70;99.90
31263;DHT22;17892;52.080;9.006;2023-03-16T04:08:41;1.70;99.90
31263;DHT22;17892;52.080;9.006;2023-03-16T04:11:06;1.70;99.90
31263;DHT22;17892;52.080;9.006;2023-03-16T04:13:32;1.70;99.90
31263;DHT22;17892;52.080;9.006;2023-03-16T04:15:59;1.70;99.90
31263;DHT22;17892;52.080;9.006;2023-03-16T04:18:30;1.70;99.90
31263;DHT22;17892;52.080;9.006;2023-03-16T04:21:04;1.70;99.90
31263;DHT22;17892;52.080;9.006;2023-03-16T04:23:31;1.80;99.90
31263;DHT22;17892;52.080;9.006;2023-03-16T04:26:00;1.80;99.90
31263;DHT22;17892;52.080;9.006;2023-03-16T04:28:26;1.80;99.90
31263;DHT22;17892;52.080;9.006;2023-03-16T04:30:52;1.80;99.90
31263;DHT22;17892;52.080;9.006;2023-03-16T04:33:19;1.80;99.90
31263;DHT22;17892;52.080;9.006;2023-03-16T04:35:46;1.80;99.90
31263;DHT22;17892;52.080;9.006;2023-03-16T04:38:12;1.80;99.90
31263;DHT22;17892;52.080;9.006;2023-03-16T04:40:38;1.90;99.90
31263;DHT22;17892;52.080;9.006;2023-03-16T04:43:03;1.80;99.90
31263;DHT22;17892;52.080;9.006;2023-03-16T04:45:29;1.80;99.90
31263;DHT22;17892;52.080;9.006;2023-03-16T04:47:55;1.80;99.90
31263;DHT22;17892;52.080;9.006;2023-03-16T04:50:21;1.80;99.90
31263;DHT22;17892;52.080;9.006;2023-03-16T04:52:47;1.90;99.90
31263;DHT22;17892;52.080;9.006;2023-03-16T04:55:12;1.80;99.90
31263;DHT22;17892;52.080;9.006;2023-03-16T04:57:38;1.80;99.90
31263;DHT22;17892;52.080;9.006;2023-03-16T05:00:05;1.80;99.90
31263;DHT22;17892;52.080;9.006;2023-03-16T05:02:43;1.80;99.90
31263;DHT22;17892;52.080;9.006;2023-03-16T05:05:09;1.80;99.90
31263;DHT22;17892;52.080;9.006;2023-03-16T05:07:35;1.80;99.90
31263;DHT22;17892;52.080;9.006;2023-03-16T05:10:00;1.80;99.90
31263;DHT22;17892;52.080;9.006;2023-03-16T05:12:26;1.80;99.90
31263;DHT22;17892;52.080;9.006;2023-03-16T05:14:52;1.80;99.90
31263;DHT22;17892;52.080;9.006;2023-03-16T05:17:18;1.90;99.90
31263;DHT22;17892;52.080;9.006;2023-03-16T05:19:43;1.90;99.90
31263;DHT22;17892;52.080;9.006;2023-03-16T05:22:09;1.90;99.90
31263;DHT22;17892;52.080;9.006;2023-03-16T05:24:35;1.90;99.90
31263;DHT22;17892;52.080;9.006;2023-03-16T05:27:01;2.00;99.90
31263;DHT22;17892;52.080;9.006;2023-03-16T05:29:27;2.00;99.90
31263;DHT22;17892;52.080;9.006;2023-03-16T05:31:55;2.00;99.90
31263;DHT22;17892;52.080;9.006;2023-03-16T05:34:21;2.10;99.90
31263;DHT22;17892;52.080;9.006;2023-03-16T05:36:47;2.10;99.90
31263;DHT22;17892;52.080;9.006;2023-03-16T05:39:13;2.10;99.90
31263;DHT22;17892;52.080;9.006;2023-03-16T05:41:39;2.20;99.90
31263;DHT22;17892;52.080;9.006;2023-03-16T05:44:06;2.20;99.90
31263;DHT22;17892;52.080;9.006;2023-03-16T05:46:33;2.20;99.90
31263;DHT22;17892;52.080;9.006;2023-03-16T05:48:59;2.30;99.90
31263;DHT22;17892;52.080;9.006;2023-03-16T05:51:24;2.30;99.90
31263;DHT22;17892;52.080;9.006;2023-03-16T05:53:54;2.30;99.90
31263;DHT22;17892;52.080;9.006;2023-03-16T05:56:27;2.40;99.90
31263;DHT22;17892;52.080;9.006;2023-03-16T05:58:54;2.40;99.90
31263;DHT22;17892;52.080;9.006;2023-03-16T06:01:20;2.50;99.90
31263;DHT22;17892;52.080;9.006;2023-03-16T06:03:48;2.50;99.90
31263;DHT22;17892;52.080;9.006;2023-03-16T06:06:17;2.60;99.90
31263;DHT22;17892;52.080;9.006;2023-03-16T06:08:43;2.60;99.90
31263;DHT22;17892;52.080;9.006;2023-03-16T06:11:10;2.70;99.90
31263;DHT22;17892;52.080;9.006;2023-03-16T06:13:36;2.70;99.90
31263;DHT22;17892;52.080;9.006;2023-03-16T06:16:03;2.80;99.90
31263;DHT22;17892;52.080;9.006;2023-03-16T06:18:31;2.80;99.90
31263;DHT22;17892;52.080;9.006;2023-03-16T06:20:59;2.90;99.90
31263;DHT22;17892;52.080;9.006;2023-03-16T06:23:25;3.00;99.90
31263;DHT22;17892;52.080;9.006;2023-03-16T06:25:51;3.00;99.90
31263;DHT22;17892;52.080;9.006;2023-03-16T06:28:20;3.10;99.90
31263;DHT22;17892;52.080;9.006;2023-03-16T06:30:46;3.20;99.90
31263;DHT22;17892;52.080;9.006;2023-03-16T06:33:12;3.20;99.90
31263;DHT22;17892;52.080;9.006;2023-03-16T06:35:37;3.20;99.90
31263;DHT22;17892;52.080;9.006;2023-03-16T06:38:03;3.30;99.90
31263;DHT22;17892;52.080;9.006;2023-03-16T06:40:29;3.30;99.90
31263;DHT22;17892;52.080;9.006;2023-03-16T06:42:55;3.30;99.90
31263;DHT22;17892;52.080;9.006;2023-03-16T06:45:21;3.40;99.90
31263;DHT22;17892;52.080;9.006;2023-03-16T06:47:47;3.40;99.90
31263;DHT22;17892;52.080;9.006;2023-03-16T06:50:13;3.50;99.90
31263;DHT22;17892;52.080;9.006;2023-03-16T06:52:39;3.50;99.90
31263;DHT22;17892;52.080;9.006;2023-03-16T06:55:06;3.60;99.90
31263;DHT22;17892;52.080;9.006;2023-03-16T06:57:33;3.70;99.90
31263;DHT22;17892;52.080;9.006;2023-03-16T06:59:58;3.80;99.90
31263;DHT22;17892;52.080;9.006;2023-03-16T07:02:25;3.90;99.90
31263;DHT22;17892;52.080;9.006;2023-03-16T07:04:50;4.00;99.90
31263;DHT22;17892;52.080;9.006;2023-03-16T07:07:16;4.00;99.90
31263;DHT22;17892;52.080;9.006;2023-03-16T07:09:43;4.10;99.90
31263;DHT22;17892;52.080;9.006;2023-03-16T07:12:09;4.20;99.90
31263;DHT22;17892;52.080;9.006;2023-03-16T07:14:35;4.30;99.90
31263;DHT22;17892;52.080;9.006;2023-03-16T07:17:00;4.40;99.90
31263;DHT22;17892;52.080;9.006;2023-03-16T07:19:27;4.50;99.90
31263;DHT22;17892;52.080;9.006;2023-03-16T07:21:53;4.70;99.90
31263;DHT22;17892;52.080;9.006;2023-03-16T07:24:19;4.90;99.90
31263;DHT22;17892;52.080;9.006;2023-03-16T07:26:45;5.10;99.90
31263;DHT22;17892;52.080;9.006;2023-03-16T07:29:12;5.30;99.90
31263;DHT22;17892;52.080;9.006;2023-03-16T07:31:38;5.40;99.90
31263;DHT22;17892;52.080;9.006;2023-03-16T07:34:04;5.60;99.90
31263;DHT22;17892;52.080;9.006;2023-03-16T07:36:31;5.70;99.90
31263;DHT22;17892;52.080;9.006;2023-03-16T07:38:57;5.80;99.90
31263;DHT22;17892;52.080;9.006;2023-03-16T07:41:23;5.90;99.90
31263;DHT22;17892;52.080;9.006;2023-03-16T07:43:50;6.10;99.90
31263;DHT22;17892;52.080;9.006;2023-03-16T07:46:16;6.20;99.90
31263;DHT22;17892;52.080;9.006;2023-03-16T07:48:43;6.30;99.90
31263;DHT22;17892;52.080;9.006;2023-03-16T07:51:10;6.40;99.90
31263;DHT22;17892;52.080;9.006;2023-03-16T07:53:38;6.40;99.90
31263;DHT22;17892;52.080;9.006;2023-03-16T07:56:04;6.50;99.90
31263;DHT22;17892;52.080;9.006;2023-03-16T07:58:31;6.50;99.90
31263;DHT22;17892;52.080;9.006;2023-03-16T08:00:57;6.60;99.90
31263;DHT22;17892;52.080;9.006;2023-03-16T08:03:25;6.50;99.90
31263;DHT22;17892;52.080;9.006;2023-03-16T08:05:52;6.50;99.90
31263;DHT22;17892;52.080;9.006;2023-03-16T08:08:18;6.50;99.90
31263;DHT22;17892;52.080;9.006;2023-03-16T08:10:47;6.50;99.90
31263;DHT22;17892;52.080;9.006;2023-03-16T08:13:13;6.50;99.90
31263;DHT22;17892;52.080;9.006;2023-03-16T08:15:39;6.50;99.90
31263;DHT22;17892;52.080;9.006;2023-03-16T08:18:05;6.50;99.90
31263;DHT22;17892;52.080;9.006;2023-03-16T08:20:32;6.50;99.90
31263;DHT22;17892;52.080;9.006;2023-03-16T08:22:58;6.50;99.90
31263;DHT22;17892;52.080;9.006;2023-03-16T08:25:24;6.50;99.90
31263;DHT22;17892;52.080;9.006;2023-03-16T08:27:51;6.50;99.90
31263;DHT22;17892;52.080;9.006;2023-03-16T08:30:17;6.50;99.90
31263;DHT22;17892;52.080;9.006;2023-03-16T08:32:43;6.50;99.90
31263;DHT22;17892;52.080;9.006;2023-03-16T08:35:14;6.50;99.90
31263;DHT22;17892;52.080;9.006;2023-03-16T08:37:41;6.60;99.90
31263;DHT22;17892;52.080;9.006;2023-03-16T08:40:08;6.70;99.90
31263;DHT22;17892;52.080;9.006;2023-03-16T08:42:38;6.70;99.90
31263;DHT22;17892;52.080;9.006;2023-03-16T08:45:08;6.80;99.90
31263;DHT22;17892;52.080;9.006;2023-03-16T08:47:35;6.90;99.90
31263;DHT22;17892;52.080;9.006;2023-03-16T08:50:02;7.00;99.90
31263;DHT22;17892;52.080;9.006;2023-03-16T08:52:30;7.10;99.90
31263;DHT22;17892;52.080;9.006;2023-03-16T08:54:58;7.20;99.90
31263;DHT22;17892;52.080;9.006;2023-03-16T08:57:24;7.30;99.90
31263;DHT22;17892;52.080;9.006;2023-03-16T08:59:50;7.50;99.90
31263;DHT22;17892;52.080;9.006;2023-03-16T09:02:16;7.60;99.90
31263;DHT22;17892;52.080;9.006;2023-03-16T09:04:42;7.80;99.90
31263;DHT22;17892;52.080;9.006;2023-03-16T09:07:08;8.00;99.90
31263;DHT22;17892;52.080;9.006;2023-03-16T09:09:34;8.20;99.90
31263;DHT22;17892;52.080;9.006;2023-03-16T09:12:01;8.50;99.90
31263;DHT22;17892;52.080;9.006;2023-03-16T09:14:28;8.60;99.90
31263;DHT22;17892;52.080;9.006;2023-03-16T09:16:54;8.80;99.90
31263;DHT22;17892;52.080;9.006;2023-03-16T09:19:20;9.10;99.90
31263;DHT22;17892;52.080;9.006;2023-03-16T09:21:47;9.40;99.90
31263;DHT22;17892;52.080;9.006;2023-03-16T09:24:13;9.70;99.90
31263;DHT22;17892;52.080;9.006;2023-03-16T09:26:39;9.90;99.90
31263;DHT22;17892;52.080;9.006;2023-03-16T09:29:05;10.10;99.20
31263;DHT22;17892;52.080;9.006;2023-03-16T09:31:33;10.30;99.90
31263;DHT22;17892;52.080;9.006;2023-03-16T09:33:59;10.50;99.90
31263;DHT22;17892;52.080;9.006;2023-03-16T09:36:24;10.60;97.70
31263;DHT22;17892;52.080;9.006;2023-03-16T09:38:52;10.70;99.90
31263;DHT22;17892;52.080;9.006;2023-03-16T09:46:48;11.00;99.90
31263;DHT22;17892;52.080;9.006;2023-03-16T09:49:17;11.20;99.40
31263;DHT22;17892;52.080;9.006;2023-03-16T09:51:50;11.50;99.90
31263;DHT22;17892;52.080;9.006;2023-03-16T09:55:25;11.90;99.90
31263;DHT22;17892;52.080;9.006;2023-03-16T09:57:34;12.10;83.60
31263;DHT22;17892;52.080;9.006;2023-03-16T10:00:21;12.40;95.20
31263;DHT22;17892;52.080;9.006;2023-03-16T10:05:36;12.60;92.10
31263;DHT22;17892;52.080;9.006;2023-03-16T10:08:20;12.60;99.60
31263;DHT22;17892;52.080;9.006;2023-03-16T10:11:16;12.60;90.10
31263;DHT22;17892;52.080;9.006;2023-03-16T10:17:00;12.80;90.60
31263;DHT22;17892;52.080;9.006;2023-03-16T10:19:42;12.70;88.80
31263;DHT22;17892;52.080;9.006;2023-03-16T10:22:29;12.90;86.60
31263;DHT22;17892;52.080;9.006;2023-03-16T10:27:52;13.10;96.10
31263;DHT22;17892;52.080;9.006;2023-03-16T10:30:26;13.30;99.90
31263;DHT22;17892;52.080;9.006;2023-03-16T10:33:00;13.50;92.60
31263;DHT22;17892;52.080;9.006;2023-03-16T10:35:42;13.60;84.70
31263;DHT22;17892;52.080;9.006;2023-03-16T10:43:43;13.80;92.70
31263;DHT22;17892;52.080;9.006;2023-03-16T10:46:10;13.60;96.20
31263;DHT22;17892;52.080;9.006;2023-03-16T10:48:37;13.60;96.30
31263;DHT22;17892;52.080;9.006;2023-03-16T10:51:07;13.50;99.90
31263;DHT22;17892;52.080;9.006;2023-03-16T10:53:42;13.40;91.60
31263;DHT22;17892;52.080;9.006;2023-03-16T10:56:19;13.30;96.10
31263;DHT22;17892;52.080;9.006;2023-03-16T10:58:47;13.20;95.00
31263;DHT22;17892;52.080;9.006;2023-03-16T11:01:23;13.10;99.90
31263;DHT22;17892;52.080;9.006;2023-03-16T11:03:52;12.90;80.60
31263;DHT22;17892;52.080;9.006;2023-03-16T11:06:25;12.60;90.10
31263;DHT22;17892;52.080;9.006;2023-03-16T11:09:05;12.40;78.30
31263;DHT22;17892;52.080;9.006;2023-03-16T11:11:35;12.30;79.80
31263;DHT22;17892;52.080;9.006;2023-03-16T11:14:03;12.00;84.70
31263;DHT22;17892;52.080;9.006;2023-03-16T11:16:48;11.90;80.70
31263;DHT22;17892;52.080;9.006;2023-03-16T11:19:36;11.70;84.80
31263;DHT22;17892;52.080;9.006;2023-03-16T11:22:25;11.60;82.60
31263;DHT22;17892;52.080;9.006;2023-03-16T11:27:45;11.60;98.90
31263;DHT22;17892;52.080;9.006;2023-03-16T11:33:01;11.60;99.90
31263;DHT22;17892;52.080;9.006;2023-03-16T11:35:37;11.70;99.90
31263;DHT22;17892;52.080;9.006;2023-03-16T11:38:31;11.80;98.80
31263;DHT22;17892;52.080;9.006;2023-03-16T11:41:12;12.00;99.90
31263;DHT22;17892;52.080;9.006;2023-03-16T11:44:25;12.20;94.30
31263;DHT22;17892;52.080;9.006;2023-03-16T11:47:06;12.40;99.90
31263;DHT22;17892;52.080;9.006;2023-03-16T11:50:13;12.60;91.60
31263;DHT22;17892;52.080;9.006;2023-03-16T11:55:41;12.70;82.90
31263;DHT22;17892;52.080;9.006;2023-03-16T11:58:16;12.80;96.40
31263;DHT22;17892;52.080;9.006;2023-03-16T12:01:32;12.90;99.90
31263;DHT22;17892;52.080;9.006;2023-03-16T12:10:28;13.20;96.90
31263;DHT22;17892;52.080;9.006;2023-03-16T12:15:50;13.70;96.50
31263;DHT22;17892;52.080;9.006;2023-03-16T12:21:03;14.00;95.00
31263;DHT22;17892;52.080;9.006;2023-03-16T12:23:35;13.90;94.10
31263;DHT22;17892;52.080;9.006;2023-03-16T12:26:03;13.90;85.30
31263;DHT22;17892;52.080;9.006;2023-03-16T12:28:30;13.80;80.20
31263;DHT22;17892;52.080;9.006;2023-03-16T12:31:12;13.60;91.60
31263;DHT22;17892;52.080;9.006;2023-03-16T12:34:13;13.40;85.60
31263;DHT22;17892;52.080;9.006;2023-03-16T12:37:05;13.30;96.10
31263;DHT22;17892;52.080;9.006;2023-03-16T12:40:03;13.20;89.10
31263;DHT22;17892;52.080;9.006;2023-03-16T12:45:39;13.00;91.30
31263;DHT22;17892;52.080;9.006;2023-03-16T12:48:18;12.90;82.60
31263;DHT22;17892;52.080;9.006;2023-03-16T12:50:53;12.80;92.50
31263;DHT22;17892;52.080;9.006;2023-03-16T12:56:09;12.60;90.70
31263;DHT22;17892;52.080;9.006;2023-03-16T12:58:43;12.50;95.60
31263;DHT22;17892;52.080;9.006;2023-03-16T13:01:12;12.40;89.40
31263;DHT22;17892;52.080;9.006;2023-03-16T13:03:41;12.30;92.80
31263;DHT22;17892;52.080;9.006;2023-03-16T13:06:19;12.20;97.70
31263;DHT22;17892;52.080;9.006;2023-03-16T13:08:54;12.30;95.50
31263;DHT22;17892;52.080;9.006;2023-03-16T13:11:24;12.30;99.40
31263;DHT22;17892;52.080;9.006;2023-03-16T13:14:04;12.40;94.20
31263;DHT22;17892;52.080;9.006;2023-03-16T13:16:33;12.40;81.40
31263;DHT22;17892;52.080;9.006;2023-03-16T13:19:29;12.40;81.10
31263;DHT22;17892;52.080;9.006;2023-03-16T13:25:14;12.40;76.60
31263;DHT22;17892;52.080;9.006;2023-03-16T13:27:54;12.40;90.00
31263;DHT22;17892;52.080;9.006;2023-03-16T13:30:29;12.40;90.70
31263;DHT22;17892;52.080;9.006;2023-03-16T13:33:06;12.40;98.40
31263;DHT22;17892;52.080;9.006;2023-03-16T13:36:12;12.50;92.90
31263;DHT22;17892;52.080;9.006;2023-03-16T13:38:38;12.50;90.40
31263;DHT22;17892;52.080;9.006;2023-03-16T13:41:09;12.50;91.80
31263;DHT22;17892;52.080;9.006;2023-03-16T13:43:41;12.40;82.00
31263;DHT22;17892;52.080;9.006;2023-03-16T13:46:20;12.30;92.60
31263;DHT22;17892;52.080;9.006;2023-03-16T13:48:51;12.30;91.10
31263;DHT22;17892;52.080;9.006;2023-03-16T13:51:19;12.20;93.10
31263;DHT22;17892;52.080;9.006;2023-03-16T13:53:47;12.20;94.10
31263;DHT22;17892;52.080;9.006;2023-03-16T13:56:17;12.20;98.60
31263;DHT22;17892;52.080;9.006;2023-03-16T13:58:50;12.20;96.70
31263;DHT22;17892;52.080;9.006;2023-03-16T14:01:27;12.20;94.10
31263;DHT22;17892;52.080;9.006;2023-03-16T14:03:56;12.20;80.40
31263;DHT22;17892;52.080;9.006;2023-03-16T14:06:24;12.20;96.10
31263;DHT22;17892;52.080;9.006;2023-03-16T14:09:14;12.20;97.60
31263;DHT22;17892;52.080;9.006;2023-03-16T14:11:42;12.20;89.40
31263;DHT22;17892;52.080;9.006;2023-03-16T14:14:19;12.20;93.20
31263;DHT22;17892;52.080;9.006;2023-03-16T14:17:03;12.20;94.60
31263;DHT22;17892;52.080;9.006;2023-03-16T14:19:41;12.30;96.90
31263;DHT22;17892;52.080;9.006;2023-03-16T14:22:15;12.20;92.70
31263;DHT22;17892;52.080;9.006;2023-03-16T14:24:44;12.20;96.00
31263;DHT22;17892;52.080;9.006;2023-03-16T14:27:28;12.10;94.80
31263;DHT22;17892;52.080;9.006;2023-03-16T14:30:21;12.00;80.30
31263;DHT22;17892;52.080;9.006;2023-03-16T14:33:00;11.90;73.10
31263;DHT22;17892;52.080;9.006;2023-03-16T14:35:30;11.70;91.20
31263;DHT22;17892;52.080;9.006;2023-03-16T14:43:31;11.40;82.60
31263;DHT22;17892;52.080;9.006;2023-03-16T14:46:00;11.30;88.70
31263;DHT22;17892;52.080;9.006;2023-03-16T14:48:28;11.30;90.60
31263;DHT22;17892;52.080;9.006;2023-03-16T14:50:57;11.50;93.80
31263;DHT22;17892;52.080;9.006;2023-03-16T14:53:24;11.60;93.50
31263;DHT22;17892;52.080;9.006;2023-03-16T14:55:53;11.70;91.80
31263;DHT22;17892;52.080;9.006;2023-03-16T14:58:20;11.80;92.60
31263;DHT22;17892;52.080;9.006;2023-03-16T15:00:46;11.80;95.00
31263;DHT22;17892;52.080;9.006;2023-03-16T15:03:14;11.80;90.30
31263;DHT22;17892;52.080;9.006;2023-03-16T15:05:42;11.80;82.90
31263;DHT22;17892;52.080;9.006;2023-03-16T15:08:15;11.80;90.40
31263;DHT22;17892;52.080;9.006;2023-03-16T15:10:43;11.70;86.00
31263;DHT22;17892;52.080;9.006;2023-03-16T15:13:15;11.60;91.90
31263;DHT22;17892;52.080;9.006;2023-03-16T15:16:00;11.60;83.30
31263;DHT22;17892;52.080;9.006;2023-03-16T15:18:28;11.40;89.00
31263;DHT22;17892;52.080;9.006;2023-03-16T15:20:54;11.30;91.00
31263;DHT22;17892;52.080;9.006;2023-03-16T15:23:20;11.30;89.70
31263;DHT22;17892;52.080;9.006;2023-03-16T15:25:47;11.20;91.40
31263;DHT22;17892;52.080;9.006;2023-03-16T15:28:19;11.20;91.20
31263;DHT22;17892;52.080;9.006;2023-03-16T15:30:55;11.10;80.10
31263;DHT22;17892;52.080;9.006;2023-03-16T15:33:24;11.10;79.30
31263;DHT22;17892;52.080;9.006;2023-03-16T15:35:52;11.00;90.30
31263;DHT22;17892;52.080;9.006;2023-03-16T15:38:25;11.00;82.50
31263;DHT22;17892;52.080;9.006;2023-03-16T15:40:53;11.00;91.50
31263;DHT22;17892;52.080;9.006;2023-03-16T15:43:21;11.00;88.20
31263;DHT22;17892;52.080;9.006;2023-03-16T15:45:50;10.90;80.00
31263;DHT22;17892;52.080;9.006;2023-03-16T15:48:19;10.90;89.50
31263;DHT22;17892;52.080;9.006;2023-03-16T15:50:54;10.90;64.30
31263;DHT22;17892;52.080;9.006;2023-03-16T15:53:39;10.80;74.20
31263;DHT22;17892;52.080;9.006;2023-03-16T15:56:13;10.80;80.20
31263;DHT22;17892;52.080;9.006;2023-03-16T15:58:43;10.70;76.00
31263;DHT22;17892;52.080;9.006;2023-03-16T16:01:20;10.70;84.00
31263;DHT22;17892;52.080;9.006;2023-03-16T16:03:49;10.70;77.60
31263;DHT22;17892;52.080;9.006;2023-03-16T16:06:16;10.60;82.40
31263;DHT22;17892;52.080;9.006;2023-03-16T16:08:42;10.60;81.70
31263;DHT22;17892;52.080;9.006;2023-03-16T16:11:15;10.60;85.50
31263;DHT22;17892;52.080;9.006;2023-03-16T16:13:43;10.70;76.80
31263;DHT22;17892;52.080;9.006;2023-03-16T16:16:16;10.70;79.10
31263;DHT22;17892;52.080;9.006;2023-03-16T16:18:43;10.80;78.20
31263;DHT22;17892;52.080;9.006;2023-03-16T16:21:16;10.80;87.50
31263;DHT22;17892;52.080;9.006;2023-03-16T16:23:45;10.80;71.30
31263;DHT22;17892;52.080;9.006;2023-03-16T16:26:26;10.80;81.60
31263;DHT22;17892;52.080;9.006;2023-03-16T16:28:54;10.90;74.70
31263;DHT22;17892;52.080;9.006;2023-03-16T16:31:23;10.90;86.70
31263;DHT22;17892;52.080;9.006;2023-03-16T16:33:50;10.80;70.70
31263;DHT22;17892;52.080;9.006;2023-03-16T16:36:18;10.80;79.60
31263;DHT22;17892;52.080;9.006;2023-03-16T16:38:48;10.80;82.80
31263;DHT22;17892;52.080;9.006;2023-03-16T16:41:31;10.70;79.70
31263;DHT22;17892;52.080;9.006;2023-03-16T16:43:58;10.70;79.60
31263;DHT22;17892;52.080;9.006;2023-03-16T16:46:29;10.60;73.60
31263;DHT22;17892;52.080;9.006;2023-03-16T16:48:59;10.50;79.40
31263;DHT22;17892;52.080;9.006;2023-03-16T16:51:30;10.40;73.30
31263;DHT22;17892;52.080;9.006;2023-03-16T16:53:57;10.30;80.50
31263;DHT22;17892;52.080;9.006;2023-03-16T16:56:27;10.20;81.60
31263;DHT22;17892;52.080;9.006;2023-03-16T16:58:56;10.10;74.90